Terminal Aerodrome Forecast
Issued by NWS

Home | Current Version | Previous Version | Text Only | Print | Product List | Glossary On
Versions: 1 2 3 4 5 6 7 8 9 10 11 12 13 14 15 16 17 18 19 20
000
FTUS43 KICT 190210 AAA
TAFSLN
TAF AMD
KSLN 190210Z 1902/1924 10013KT P6SM VCTS SCT035CB BKN070
      TEMPO 1902/1906 VRB15G25KT 6SM -SHRA OVC040
     FM191200 34008KT P6SM VCSH SCT020 OVC060
     FM192000 33011KT 6SM -SHRA OVC040=

USA.gov is the U.S. government's official web portal to all federal, state and local government web resources and services.